首页
METAR-TAF:

METAR-TAF

机场 :

楠帕, 爱达荷州, 美国

纬度: 43-34-53N, 经度: 116-31-23W, 海拔: 773米

当前天气观测

该预报发布于34分钟前的00:15 UTC
风速14节,风向西北,有时为21节阵风
温度 18°C
湿度 24%
气压 1016 hPa
能見度: 16.1公里
天空无云

METAR: KMAN 210015Z AUTO 32014G21KT 10SM CLR 18/M03 A3001 RMK A01

时间: 18:49 (00:49 UTC)


TAF: 丢失

超过4000个机场的气象观测和天气预报(METAR&TAF报告)。

可查询的气象台以黄色和红色小点在地图上表示。

将鼠标移到小点上方,可查看气象台名称。

然后点击查看天气观测和预报。

如需切换地图:点击带黑十字的绿色按钮放大地图;点击带横线的绿色按钮缩小地图;或者点击绿色箭头查看邻近地区的地图。


METAR-TAF: